Taurus — 9HA4372 — position and weather

sailwx.info

Track history (hours):
 
Tides and Currents Weather Stations Pressure Air Temp Water Temp Dewpoint Dewpoint Depression Visibility Wind Speed Wind Dir Waves Ship Positions

Taurus

Last reported at 2017-Nov-09 03:56 UTC. Time now 2017-Nov-18 23:32 UTC.
Position N 01°22' E 103°15'.
Warning: this ship's position is 9 days out of date.

Length 369 m; draft 15.5 m.

Type: Ship (hazmat cat A). MMSI: 249773000.

Date/timePositionNaut miles runAvg speedWind from/ knotsBaromVisibWave heightAir tempDewpointWater temp
2017-Nov-09 03:56N 01°22' E 103°15'717.1
2017-Nov-09 03:30N 01°18' E 103°21'918.3
2017-Nov-09 03:00N 01°13' E 103°28'918.8
2017-Nov-09 02:31N 01°11' E 103°38'714.7
2017-Nov-09 02:00N 01°09' E 103°44'510.6
2017-Nov-09 01:31N 01°11' E 103°49'3 6.4
2017-Nov-09 01:01N 01°14' E 103°47'2 4.7
2017-Nov-09 00:30N 01°16' E 103°47'0 0.6
2017-Nov-09 00:00N 01°16' E 103°47'0 0.2
2017-Nov-08 23:30N 01°16' E 103°47'0 0.1
2017-Nov-08 23:00N 01°16' E 103°47'0 0.1
2017-Nov-08 22:30N 01°16' E 103°47'0 0.0
2017-Nov-08 22:00N 01°16' E 103°47'0 0.0
2017-Nov-08 21:30N 01°16' E 103°47'0 0.0
2017-Nov-08 20:30N 01°16' E 103°47'0 0.0
2017-Nov-08 20:00N 01°16' E 103°47'0 0.0
2017-Nov-08 19:30N 01°16' E 103°47'0 0.1
2017-Nov-08 19:00N 01°16' E 103°47'0 0.1
2017-Nov-08 18:24N 01°16' E 103°47'0 0.0
2017-Nov-08 17:57N 01°16' E 103°47'0 0.1
2017-Nov-08 17:30N 01°16' E 103°47'0 0.1
2017-Nov-08 17:00N 01°16' E 103°47'0 0.0
2017-Nov-08 16:30N 01°16' E 103°47'0 0.1
2017-Nov-08 16:00N 01°16' E 103°47'0 0.1
2017-Nov-08 15:30N 01°16' E 103°47'0 0.0
2017-Nov-08 15:00N 01°16' E 103°47'0 0.0
2017-Nov-08 14:30N 01°16' E 103°47'0 0.0
2017-Nov-08 14:00N 01°16' E 103°47'0 0.0
2017-Nov-08 13:30N 01°16' E 103°47'0 0.0
2017-Nov-08 13:00N 01°16' E 103°47'0 0.0
2017-Nov-08 12:24N 01°16' E 103°47'0 0.0
2017-Nov-08 12:00N 01°16' E 103°47'0 0.0
2017-Nov-08 11:30N 01°16' E 103°47'0 0.0
2017-Nov-08 11:00N 01°16' E 103°47'0 0.0
2017-Nov-08 10:30N 01°16' E 103°47'0 0.0
2017-Nov-08 10:00N 01°16' E 103°47'0 0.1
2017-Nov-08 09:30N 01°16' E 103°47'0 0.1
2017-Nov-08 09:00N 01°16' E 103°47'0 0.0
2017-Nov-08 08:30N 01°16' E 103°47'0 0.1
2017-Nov-08 08:01N 01°16' E 103°47'1 1.5
2017-Nov-08 07:30N 01°16' E 103°46'1 1.3
2017-Nov-08 07:01N 01°15' E 103°47'0 0.3
2017-Nov-08 06:30N 01°15' E 103°47'3 5.7
2017-Nov-08 06:00N 01°13' E 103°49'5 9.9
2017-Nov-08 05:30N 01°14' E 103°53'4 7.0
2017-Nov-08 05:00N 01°15' E 103°57'3 7.0
2017-Nov-08 04:30N 01°16' E 104°00'4 7.8
2017-Nov-08 04:00N 01°16' E 104°04'4 7.0
2017-Nov-08 03:29N 01°17' E 104°08'3 6.9
2017-Nov-08 03:00N 01°17' E 104°11'  
2017-Nov-04 12:32N 21°50' E 114°17'215.7
2017-Nov-04 12:24N 21°51' E 114°18'615.6
2017-Nov-04 12:00N 21°57' E 114°22'714.3
2017-Nov-04 11:30N 22°03' E 114°22'713.5
2017-Nov-04 11:00N 22°07' E 114°16'612.6
2017-Nov-04 10:30N 22°11' E 114°11'510.1
2017-Nov-04 09:59N 22°15' E 114°07'711.2
2017-Nov-04 09:22N 22°22' E 114°04'512.4
2017-Nov-04 09:00N 22°21' E 113°59'510.5
2017-Nov-04 08:30N 22°22' E 113°54'4 7.9
2017-Nov-04 08:00N 22°26' E 113°53'1 1.6
2017-Nov-04 07:31N 22°27' E 113°54'0 0.1
2017-Nov-04 06:58N 22°27' E 113°53'0 0.0
2017-Nov-04 06:28N 22°27' E 113°53'0 0.0
2017-Nov-04 05:58N 22°27' E 113°53'0 0.0
2017-Nov-04 05:28N 22°27' E 113°53'0 0.0
2017-Nov-04 04:58N 22°27' E 113°53'0 0.0
2017-Nov-04 04:28N 22°27' E 113°53'0 0.0
2017-Nov-04 03:58N 22°27' E 113°53'0 0.0
2017-Nov-04 03:28N 22°27' E 113°53'0 0.0
2017-Nov-04 02:58N 22°27' E 113°53'0 0.0
2017-Nov-04 02:28N 22°27' E 113°53'0 0.0
2017-Nov-04 01:58N 22°27' E 113°53'0 0.0
2017-Nov-04 01:28N 22°27' E 113°53'0 0.0
2017-Nov-04 00:58N 22°27' E 113°53'0 0.0
2017-Nov-04 00:28N 22°27' E 113°53'0 0.0
2017-Nov-03 23:58N 22°27' E 113°53'0 0.0
2017-Nov-03 23:28N 22°27' E 113°53'0 0.0
2017-Nov-03 22:58N 22°27' E 113°53'0 0.0
2017-Nov-03 22:28N 22°27' E 113°53'0 0.0
2017-Nov-03 21:58N 22°27' E 113°53'0 0.0
2017-Nov-03 21:28N 22°27' E 113°53'0 0.0
2017-Nov-03 20:58N 22°27' E 113°53'0 0.0
2017-Nov-03 20:28N 22°27' E 113°53'0 0.0
2017-Nov-03 19:58N 22°27' E 113°53'0 0.0
2017-Nov-03 19:28N 22°27' E 113°53'0 0.0
2017-Nov-03 18:58N 22°27' E 113°53'0 0.0
2017-Nov-03 18:28N 22°27' E 113°53'0 0.0
2017-Nov-03 17:58N 22°27' E 113°53'0 0.0
2017-Nov-03 17:28N 22°27' E 113°53'0 0.0
2017-Nov-03 16:58N 22°27' E 113°53'0 0.0
2017-Nov-03 16:28N 22°27' E 113°53'1 1.2
2017-Nov-03 16:00N 22°27' E 113°53'3 6.3
2017-Nov-03 15:30N 22°23' E 113°54'510.9
2017-Nov-03 15:00N 22°21' E 113°59'10 9.0
2017-Nov-03 13:56N 22°15' E 114°07'4 9.4
2017-Nov-03 13:29N 22°12' E 114°11'6 1.2
2017-Nov-03 08:12N 22°06' E 114°09'1 2.9
2017-Nov-03 07:59N 22°06' E 114°10'3 5.9
2017-Nov-03 07:30N 22°08' E 114°12'4 8.7
2017-Nov-03 07:00N 22°12' E 114°11'5 8.8
2017-Nov-03 06:29N 22°15' E 114°07'510.5
2017-Nov-03 06:00N 22°20' E 114°07'0 0.0
2017-Nov-02 19:14N 22°20' E 114°07'5 9.3
2017-Nov-02 18:45N 22°15' E 114°07'313.0
2017-Nov-02 18:29N 22°13' E 114°10'4 8.7
2017-Nov-02 18:00N 22°10' E 114°13'612.3
2017-Nov-02 17:30N 22°08' E 114°19'612.0
2017-Nov-02 17:00N 22°08' E 114°26'612.1
2017-Nov-02 16:30N 22°08' E 114°32'612.2
2017-Nov-02 16:00N 22°09' E 114°39'612.2
2017-Nov-02 15:30N 22°09' E 114°45'612.1
2017-Nov-02 15:00N 22°10' E 114°52'612.3
2017-Nov-02 14:30N 22°11' E 114°58'612.3
2017-Nov-02 14:00N 22°13' E 115°05'612.1
2017-Nov-02 13:30N 22°14' E 115°11'612.2
2017-Nov-02 13:01N 22°15' E 115°17'612.1
2017-Nov-02 12:30N 22°17' E 115°24'712.2
2017-Nov-02 11:58N 22°19' E 115°31'812.2
2017-Nov-02 11:17N 22°20' E 115°39'1412.2
2017-Nov-02 10:06N 22°25' E 115°54'15712.1
2017-Nov-01 21:09N 23°43' E 118°22'211.8
2017-Nov-01 20:58N 23°45' E 118°24'612.0
2017-Nov-01 20:28N 23°49' E 118°29'1212.1
2017-Nov-01 19:29N 23°56' E 118°39'  
Track history (hours):
 
Tides and Currents Weather Stations Pressure Air Temp Water Temp Dewpoint Dewpoint Depression Visibility Wind Speed Wind Dir Waves Ship Positions

Taurus

Last reported at 2017-Nov-09 03:56 UTC. Time now 2017-Nov-18 23:32 UTC.
Position N 01°22' E 103°15'.
Warning: this ship's position is 9 days out of date.

Length 369 m; draft 15.5 m.

Type: Ship (hazmat cat A). MMSI: 249773000.

Date/timePositionNaut miles runAvg speedWind from/ knotsBaromVisibWave heightAir tempDewpointWater temp
2017-Nov-09 03:56N 01°22' E 103°15'717.1
2017-Nov-09 03:30N 01°18' E 103°21'918.3
2017-Nov-09 03:00N 01°13' E 103°28'918.8
2017-Nov-09 02:31N 01°11' E 103°38'714.7
2017-Nov-09 02:00N 01°09' E 103°44'510.6
2017-Nov-09 01:31N 01°11' E 103°49'3 6.4
2017-Nov-09 01:01N 01°14' E 103°47'2 4.7
2017-Nov-09 00:30N 01°16' E 103°47'0 0.6
2017-Nov-09 00:00N 01°16' E 103°47'0 0.2
2017-Nov-08 23:30N 01°16' E 103°47'0 0.1
2017-Nov-08 23:00N 01°16' E 103°47'0 0.1
2017-Nov-08 22:30N 01°16' E 103°47'0 0.0
2017-Nov-08 22:00N 01°16' E 103°47'0 0.0
2017-Nov-08 21:30N 01°16' E 103°47'0 0.0
2017-Nov-08 20:30N 01°16' E 103°47'0 0.0
2017-Nov-08 20:00N 01°16' E 103°47'0 0.0
2017-Nov-08 19:30N 01°16' E 103°47'0 0.1
2017-Nov-08 19:00N 01°16' E 103°47'0 0.1
2017-Nov-08 18:24N 01°16' E 103°47'0 0.0
2017-Nov-08 17:57N 01°16' E 103°47'0 0.1
2017-Nov-08 17:30N 01°16' E 103°47'0 0.1
2017-Nov-08 17:00N 01°16' E 103°47'0 0.0
2017-Nov-08 16:30N 01°16' E 103°47'0 0.1
2017-Nov-08 16:00N 01°16' E 103°47'0 0.1
2017-Nov-08 15:30N 01°16' E 103°47'0 0.0
2017-Nov-08 15:00N 01°16' E 103°47'0 0.0
2017-Nov-08 14:30N 01°16' E 103°47'0 0.0
2017-Nov-08 14:00N 01°16' E 103°47'0 0.0
2017-Nov-08 13:30N 01°16' E 103°47'0 0.0
2017-Nov-08 13:00N 01°16' E 103°47'0 0.0
2017-Nov-08 12:24N 01°16' E 103°47'0 0.0
2017-Nov-08 12:00N 01°16' E 103°47'0 0.0
2017-Nov-08 11:30N 01°16' E 103°47'0 0.0
2017-Nov-08 11:00N 01°16' E 103°47'0 0.0
2017-Nov-08 10:30N 01°16' E 103°47'0 0.0
2017-Nov-08 10:00N 01°16' E 103°47'0 0.1
2017-Nov-08 09:30N 01°16' E 103°47'0 0.1
2017-Nov-08 09:00N 01°16' E 103°47'0 0.0
2017-Nov-08 08:30N 01°16' E 103°47'0 0.1
2017-Nov-08 08:01N 01°16' E 103°47'1 1.5
2017-Nov-08 07:30N 01°16' E 103°46'1 1.3
2017-Nov-08 07:01N 01°15' E 103°47'0 0.3
2017-Nov-08 06:30N 01°15' E 103°47'3 5.7
2017-Nov-08 06:00N 01°13' E 103°49'5 9.9
2017-Nov-08 05:30N 01°14' E 103°53'4 7.0
2017-Nov-08 05:00N 01°15' E 103°57'3 7.0
2017-Nov-08 04:30N 01°16' E 104°00'4 7.8
2017-Nov-08 04:00N 01°16' E 104°04'4 7.0
2017-Nov-08 03:29N 01°17' E 104°08'3 6.9
2017-Nov-08 03:00N 01°17' E 104°11'  
2017-Nov-04 12:32N 21°50' E 114°17'215.7
2017-Nov-04 12:24N 21°51' E 114°18'615.6
2017-Nov-04 12:00N 21°57' E 114°22'714.3
2017-Nov-04 11:30N 22°03' E 114°22'713.5
2017-Nov-04 11:00N 22°07' E 114°16'612.6
2017-Nov-04 10:30N 22°11' E 114°11'510.1
2017-Nov-04 09:59N 22°15' E 114°07'711.2
2017-Nov-04 09:22N 22°22' E 114°04'512.4
2017-Nov-04 09:00N 22°21' E 113°59'510.5
2017-Nov-04 08:30N 22°22' E 113°54'4 7.9
2017-Nov-04 08:00N 22°26' E 113°53'1 1.6
2017-Nov-04 07:31N 22°27' E 113°54'0 0.1
2017-Nov-04 06:58N 22°27' E 113°53'0 0.0
2017-Nov-04 06:28N 22°27' E 113°53'0 0.0
2017-Nov-04 05:58N 22°27' E 113°53'0 0.0
2017-Nov-04 05:28N 22°27' E 113°53'0 0.0
2017-Nov-04 04:58N 22°27' E 113°53'0 0.0
2017-Nov-04 04:28N 22°27' E 113°53'0 0.0
2017-Nov-04 03:58N 22°27' E 113°53'0 0.0
2017-Nov-04 03:28N 22°27' E 113°53'0 0.0
2017-Nov-04 02:58N 22°27' E 113°53'0 0.0
2017-Nov-04 02:28N 22°27' E 113°53'0 0.0
2017-Nov-04 01:58N 22°27' E 113°53'0 0.0
2017-Nov-04 01:28N 22°27' E 113°53'0 0.0
2017-Nov-04 00:58N 22°27' E 113°53'0 0.0
2017-Nov-04 00:28N 22°27' E 113°53'0 0.0
2017-Nov-03 23:58N 22°27' E 113°53'0 0.0
2017-Nov-03 23:28N 22°27' E 113°53'0 0.0
2017-Nov-03 22:58N 22°27' E 113°53'0 0.0
2017-Nov-03 22:28N 22°27' E 113°53'0 0.0
2017-Nov-03 21:58N 22°27' E 113°53'0 0.0
2017-Nov-03 21:28N 22°27' E 113°53'0 0.0
2017-Nov-03 20:58N 22°27' E 113°53'0 0.0
2017-Nov-03 20:28N 22°27' E 113°53'0 0.0
2017-Nov-03 19:58N 22°27' E 113°53'0 0.0
2017-Nov-03 19:28N 22°27' E 113°53'0 0.0
2017-Nov-03 18:58N 22°27' E 113°53'0 0.0
2017-Nov-03 18:28N 22°27' E 113°53'0 0.0
2017-Nov-03 17:58N 22°27' E 113°53'0 0.0
2017-Nov-03 17:28N 22°27' E 113°53'0 0.0
2017-Nov-03 16:58N 22°27' E 113°53'0 0.0
2017-Nov-03 16:28N 22°27' E 113°53'1 1.2
2017-Nov-03 16:00N 22°27' E 113°53'3 6.3
2017-Nov-03 15:30N 22°23' E 113°54'510.9
2017-Nov-03 15:00N 22°21' E 113°59'10 9.0
2017-Nov-03 13:56N 22°15' E 114°07'4 9.4
2017-Nov-03 13:29N 22°12' E 114°11'6 1.2
2017-Nov-03 08:12N 22°06' E 114°09'1 2.9
2017-Nov-03 07:59N 22°06' E 114°10'3 5.9
2017-Nov-03 07:30N 22°08' E 114°12'4 8.7
2017-Nov-03 07:00N 22°12' E 114°11'5 8.8
2017-Nov-03 06:29N 22°15' E 114°07'510.5
2017-Nov-03 06:00N 22°20' E 114°07'0 0.0
2017-Nov-02 19:14N 22°20' E 114°07'5 9.3
2017-Nov-02 18:45N 22°15' E 114°07'313.0
2017-Nov-02 18:29N 22°13' E 114°10'4 8.7
2017-Nov-02 18:00N 22°10' E 114°13'612.3
2017-Nov-02 17:30N 22°08' E 114°19'612.0
2017-Nov-02 17:00N 22°08' E 114°26'612.1
2017-Nov-02 16:30N 22°08' E 114°32'612.2
2017-Nov-02 16:00N 22°09' E 114°39'612.2
2017-Nov-02 15:30N 22°09' E 114°45'612.1
2017-Nov-02 15:00N 22°10' E 114°52'612.3
2017-Nov-02 14:30N 22°11' E 114°58'612.3
2017-Nov-02 14:00N 22°13' E 115°05'612.1
2017-Nov-02 13:30N 22°14' E 115°11'612.2
2017-Nov-02 13:01N 22°15' E 115°17'612.1
2017-Nov-02 12:30N 22°17' E 115°24'712.2
2017-Nov-02 11:58N 22°19' E 115°31'812.2
2017-Nov-02 11:17N 22°20' E 115°39'1412.2
2017-Nov-02 10:06N 22°25' E 115°54'15712.1
2017-Nov-01 21:09N 23°43' E 118°22'211.8
2017-Nov-01 20:58N 23°45' E 118°24'612.0
2017-Nov-01 20:28N 23°49' E 118°29'1212.1
2017-Nov-01 19:29N 23°56' E 118°39'  

Dump ship's entire track history